createdAt,value
2023-03-17T00:01:51.386Z,15.13
2023-03-17T00:07:26.433Z,12.38
2023-03-17T00:10:25.769Z,12.77
2023-03-17T00:13:13.050Z,10.25
2023-03-17T00:16:04.839Z,17.15
2023-03-17T00:18:53.832Z,14.88
2023-03-17T00:21:42.179Z,13.57
2023-03-17T00:24:29.813Z,12.75
2023-03-17T00:27:22.025Z,10.65
2023-03-17T00:30:11.138Z,12.80
2023-03-17T00:32:58.940Z,9.40
2023-03-17T00:35:46.722Z,10.45
2023-03-17T00:38:34.001Z,10.45
2023-03-17T00:41:21.277Z,13.73
2023-03-17T00:44:08.449Z,12.02
2023-03-17T00:46:56.553Z,11.48
2023-03-17T00:49:44.029Z,9.05
2023-03-17T00:52:33.767Z,9.73
2023-03-17T00:55:21.521Z,11.20
2023-03-17T00:58:28.783Z,11.40
2023-03-17T01:01:18.604Z,10.20
2023-03-17T01:04:08.290Z,10.20
2023-03-17T01:06:55.478Z,9.70
2023-03-17T01:09:45.469Z,10.00
2023-03-17T01:12:33.170Z,8.98
2023-03-17T01:15:24.740Z,8.15
2023-03-17T01:18:14.118Z,10.50
2023-03-17T01:21:02.772Z,10.57
2023-03-17T01:23:49.845Z,11.75
2023-03-17T01:26:37.501Z,11.30
2023-03-17T01:29:27.771Z,8.73
2023-03-17T01:32:17.181Z,9.55
2023-03-17T01:35:04.915Z,9.18
2023-03-17T01:37:52.703Z,10.93
2023-03-17T01:40:45.923Z,7.70
2023-03-17T01:43:33.216Z,7.97
2023-03-17T01:46:28.113Z,9.85
2023-03-17T01:49:23.440Z,11.65
2023-03-17T01:52:16.408Z,8.68
2023-03-17T01:55:07.264Z,14.25
2023-03-17T01:57:59.810Z,6.45
2023-03-17T02:00:47.003Z,9.98
2023-03-17T02:03:34.580Z,7.28
2023-03-17T02:06:22.214Z,8.57
2023-03-17T02:09:10.113Z,7.18
2023-03-17T02:12:02.126Z,7.45
2023-03-17T02:14:49.302Z,5.80
2023-03-17T02:17:37.139Z,6.78
2023-03-17T02:20:24.364Z,7.35
2023-03-17T02:23:11.780Z,7.78
2023-03-17T02:26:01.384Z,6.78
2023-03-17T02:28:48.608Z,9.20
2023-03-17T02:31:35.796Z,6.22
2023-03-17T02:34:25.639Z,7.35
2023-03-17T02:37:13.309Z,5.45
2023-03-17T02:40:01.764Z,4.70
2023-03-17T02:42:49.497Z,7.50
2023-03-17T02:45:36.796Z,7.88
2023-03-17T02:48:23.998Z,7.10
2023-03-17T02:51:13.819Z,4.57
2023-03-17T02:54:01.102Z,6.82
2023-03-17T02:56:49.500Z,6.47
2023-03-17T02:59:37.224Z,11.13
2023-03-17T03:02:24.395Z,6.28
2023-03-17T03:05:11.519Z,7.13
2023-03-17T03:07:58.747Z,5.85
2023-03-17T03:10:48.186Z,4.05
2023-03-17T03:13:36.701Z,4.68
2023-03-17T03:16:26.307Z,5.13
2023-03-17T03:19:13.600Z,7.82
2023-03-17T03:22:00.758Z,7.78
2023-03-17T03:24:48.975Z,5.97
2023-03-17T03:27:36.268Z,3.60
2023-03-17T03:30:28.341Z,5.75
2023-03-17T03:33:16.699Z,6.00
2023-03-17T03:36:04.068Z,5.22
2023-03-17T03:38:56.056Z,5.70
2023-03-17T03:41:44.014Z,8.65
2023-03-17T03:44:38.355Z,5.40
2023-03-17T03:47:25.738Z,6.78
2023-03-17T03:50:16.271Z,6.47
2023-03-17T03:53:03.935Z,6.38
2023-03-17T03:55:51.222Z,7.40
2023-03-17T03:58:38.416Z,5.95
2023-03-17T04:01:25.538Z,5.80
2023-03-17T04:04:12.931Z,5.32
2023-03-17T04:07:02.308Z,4.20
2023-03-17T04:09:51.848Z,7.80
2023-03-17T04:12:42.502Z,9.60
2023-03-17T04:15:29.801Z,4.90
2023-03-17T04:18:16.979Z,7.00
2023-03-17T04:21:04.305Z,6.30
2023-03-17T04:23:51.695Z,8.85
2023-03-17T04:26:39.180Z,6.88
2023-03-17T04:29:28.681Z,6.15
2023-03-17T04:32:18.466Z,5.75
2023-03-17T04:35:07.088Z,6.95
2023-03-17T04:37:54.216Z,5.88
2023-03-17T04:40:41.633Z,5.60
2023-03-17T04:43:28.729Z,6.28
2023-03-17T04:46:16.395Z,5.95
2023-03-17T04:49:03.789Z,6.10
2023-03-17T04:51:55.878Z,5.65
2023-03-17T04:54:43.036Z,8.98
2023-03-17T04:57:30.419Z,5.47
2023-03-17T05:00:18.193Z,5.00
2023-03-17T05:06:46.591Z,10.52
2023-03-17T05:09:33.725Z,6.10
2023-03-17T05:12:21.145Z,5.50
2023-03-17T05:15:10.063Z,8.10
2023-03-17T05:17:57.356Z,9.73
2023-03-17T05:20:45.024Z,8.02
2023-03-17T05:23:32.382Z,8.02
2023-03-17T05:26:19.984Z,6.72
2023-03-17T05:29:09.953Z,7.03
2023-03-17T05:31:57.196Z,6.40
2023-03-17T05:34:45.143Z,4.88
2023-03-17T05:37:34.964Z,13.75
2023-03-17T05:40:23.981Z,9.13
2023-03-17T05:43:11.288Z,11.90
2023-03-17T05:45:58.848Z,7.93
2023-03-17T05:48:47.071Z,6.10
2023-03-17T05:51:36.827Z,8.88
2023-03-17T05:54:26.686Z,8.18
2023-03-17T05:57:16.584Z,8.40
2023-03-17T06:00:05.268Z,8.57
2023-03-17T06:02:52.491Z,9.35
2023-03-17T06:05:40.151Z,12.82
2023-03-17T06:08:29.771Z,13.60
2023-03-17T06:11:20.689Z,13.27
2023-03-17T06:14:08.161Z,10.55
2023-03-17T06:16:55.854Z,13.93
2023-03-17T06:19:43.039Z,10.05
2023-03-17T06:22:46.263Z,9.25
2023-03-17T06:25:39.469Z,7.50
2023-03-17T06:28:29.257Z,12.23
2023-03-17T06:31:16.682Z,3.97
2023-03-17T06:34:24.676Z,4.22
2023-03-17T06:37:53.436Z,5.22
2023-03-17T06:45:33.216Z,3.13
2023-03-17T07:08:06.334Z,6.25
2023-03-17T07:11:44.283Z,6.50
2023-03-17T07:14:52.216Z,8.45
2023-03-17T07:18:05.375Z,3.90
2023-03-17T07:24:28.353Z,11.85
2023-03-17T07:28:31.720Z,6.00
2023-03-17T07:34:31.395Z,5.70
2023-03-17T07:58:04.710Z,8.07
2023-03-17T08:01:01.741Z,8.32
2023-03-17T08:04:17.800Z,8.43
2023-03-17T08:07:10.780Z,6.65
2023-03-17T08:09:59.160Z,6.93
2023-03-17T08:12:46.976Z,6.35
2023-03-17T08:15:37.396Z,4.93
2023-03-17T08:18:34.910Z,6.88
2023-03-17T08:21:36.063Z,15.55
2023-03-17T08:24:35.732Z,8.38
2023-03-17T11:46:24.249Z,1.38
2023-03-17T11:49:28.678Z,0.68
2023-03-17T11:52:41.228Z,0.68
2023-03-17T12:06:20.980Z,4.60
2023-03-17T12:09:30.138Z,2.58
2023-03-17T12:19:32.947Z,1.25
2023-03-17T12:22:37.123Z,1.25
2023-03-17T12:25:47.732Z,1.50
2023-03-17T12:28:57.419Z,1.70
2023-03-17T12:31:57.449Z,1.02
2023-03-17T12:34:54.177Z,1.25
2023-03-17T12:37:42.998Z,0.63
2023-03-17T12:40:43.063Z,4.25
2023-03-17T12:43:56.682Z,2.63
2023-03-17T12:47:10.960Z,1.00
2023-03-17T12:50:37.305Z,1.30
2023-03-17T12:53:33.155Z,1.02
2023-03-17T14:14:05.258Z,2.05
2023-03-17T14:37:47.218Z,2.20
2023-03-17T14:41:04.673Z,1.10
2023-03-17T14:43:57.359Z,2.95
2023-03-17T15:14:57.023Z,2.83
2023-03-17T15:17:49.021Z,1.92
2023-03-17T15:24:33.474Z,2.75
2023-03-17T15:27:23.174Z,2.80
2023-03-17T15:30:27.450Z,2.35
2023-03-17T15:33:31.379Z,3.70
2023-03-17T15:36:32.807Z,2.43
2023-03-17T15:39:29.875Z,4.50
2023-03-17T15:43:01.985Z,3.55
2023-03-17T15:59:02.897Z,3.28
2023-03-17T16:01:50.681Z,5.88
2023-03-17T16:09:14.518Z,3.15
2023-03-17T16:12:02.252Z,5.22
2023-03-17T16:14:49.664Z,2.17
2023-03-17T16:17:41.669Z,2.38
2023-03-17T16:20:42.925Z,4.50
2023-03-17T16:23:35.388Z,8.18
2023-03-17T16:26:25.429Z,2.22
2023-03-17T16:29:16.696Z,3.40
2023-03-17T16:32:04.408Z,2.80
2023-03-17T16:34:53.996Z,2.47
2023-03-17T16:37:41.807Z,3.97
2023-03-17T16:40:46.893Z,4.85
2023-03-17T16:43:42.146Z,4.60
2023-03-17T16:46:36.197Z,3.55
2023-03-17T16:49:31.532Z,6.22
2023-03-17T16:52:18.811Z,7.93
2023-03-17T16:55:09.992Z,27.02
2023-03-17T16:58:01.046Z,6.47
2023-03-17T17:00:51.657Z,10.60
2023-03-17T17:16:37.395Z,6.05
2023-03-17T17:19:42.852Z,5.57
2023-03-17T17:22:47.584Z,4.07
2023-03-17T17:25:34.674Z,7.57
2023-03-17T17:28:29.796Z,7.72
2023-03-17T17:31:26.476Z,8.30
2023-03-17T17:34:15.532Z,3.63
2023-03-17T17:37:03.266Z,3.45
2023-03-17T17:39:53.454Z,5.65
2023-03-17T17:42:47.769Z,6.00
2023-03-17T17:45:37.400Z,4.45
2023-03-17T17:48:27.249Z,5.75
2023-03-17T17:51:15.792Z,4.78
2023-03-17T17:54:03.375Z,9.00
2023-03-17T17:56:50.766Z,5.82
2023-03-17T17:59:38.377Z,7.07
2023-03-17T18:02:31.158Z,3.50
2023-03-17T18:05:18.592Z,4.72
2023-03-17T18:08:06.589Z,6.57
2023-03-17T18:10:57.285Z,4.88
2023-03-17T18:13:45.524Z,4.10
2023-03-17T18:16:36.119Z,4.53
2023-03-17T18:19:23.543Z,5.70
2023-03-17T18:22:11.631Z,8.63
2023-03-17T18:24:58.910Z,4.00
2023-03-17T18:27:47.370Z,3.95
2023-03-17T18:30:35.714Z,3.72
2023-03-17T18:33:23.184Z,5.00
2023-03-17T18:36:11.427Z,4.55
2023-03-17T18:38:58.881Z,5.13
2023-03-17T18:41:46.434Z,5.72
2023-03-17T18:44:34.424Z,6.22
2023-03-17T18:47:21.802Z,8.00
2023-03-17T18:50:12.142Z,8.07
2023-03-17T18:53:02.444Z,4.63
2023-03-17T18:55:50.303Z,7.07
2023-03-17T18:58:40.464Z,8.02
2023-03-17T19:01:28.024Z,9.57
2023-03-17T19:04:15.644Z,7.57
2023-03-17T19:07:08.166Z,13.23
2023-03-17T19:09:58.307Z,15.00
2023-03-17T19:12:52.224Z,11.98
2023-03-17T19:15:39.518Z,11.25
2023-03-17T19:18:27.517Z,15.85
2023-03-17T19:21:14.781Z,17.88
2023-03-17T19:24:03.215Z,14.18
2023-03-17T19:26:53.596Z,8.65
2023-03-17T19:29:40.999Z,6.03
2023-03-17T19:32:28.319Z,7.43
2023-03-17T19:35:16.040Z,6.40
2023-03-17T19:38:05.529Z,6.63
2023-03-17T19:40:55.768Z,12.38
2023-03-17T19:43:46.361Z,12.30
2023-03-17T19:46:34.787Z,9.30
2023-03-17T19:49:22.630Z,8.40
2023-03-17T19:52:10.610Z,8.55
2023-03-17T19:54:58.094Z,7.43
2023-03-17T19:57:46.286Z,6.50
2023-03-17T20:00:39.121Z,7.15
2023-03-17T20:03:32.424Z,5.95
2023-03-17T20:06:19.860Z,4.40
2023-03-17T20:09:09.009Z,6.10
2023-03-17T20:11:59.536Z,5.20
2023-03-17T20:14:47.373Z,5.95
2023-03-17T20:17:41.323Z,8.52
2023-03-17T20:20:28.612Z,5.82
2023-03-17T20:23:22.787Z,6.88
2023-03-17T20:26:10.149Z,6.50
2023-03-17T20:28:57.655Z,6.30
2023-03-17T20:31:45.667Z,3.90
2023-03-17T20:34:34.977Z,5.78
2023-03-17T20:37:22.695Z,4.28
2023-03-17T20:40:10.945Z,6.35
2023-03-17T20:43:06.964Z,7.88
2023-03-17T20:45:54.550Z,7.50
2023-03-17T20:48:46.691Z,4.57
2023-03-17T20:51:38.080Z,6.75
2023-03-17T20:54:25.600Z,4.88
2023-03-17T20:57:19.563Z,4.82
2023-03-17T21:00:12.441Z,5.97
2023-03-17T21:03:00.456Z,4.15
2023-03-17T21:05:47.855Z,6.70
2023-03-17T21:08:35.950Z,8.07
2023-03-17T21:11:30.581Z,5.15
2023-03-17T21:14:18.606Z,6.40
2023-03-17T21:17:14.361Z,5.28
2023-03-17T21:20:01.813Z,2.55
2023-03-17T21:22:49.017Z,4.57
2023-03-17T21:25:37.188Z,4.50
2023-03-17T21:28:24.655Z,4.68
2023-03-17T21:31:13.512Z,6.40
2023-03-17T21:34:01.020Z,4.25
2023-03-17T21:36:50.273Z,4.65
2023-03-17T21:39:37.554Z,5.28
2023-03-17T21:42:25.357Z,3.53
2023-03-17T21:45:12.841Z,4.47
2023-03-17T21:48:00.654Z,5.63
2023-03-17T21:50:49.095Z,7.70
2023-03-17T21:53:38.667Z,4.70
2023-03-17T21:56:26.199Z,3.67
2023-03-17T21:59:15.599Z,7.15
2023-03-17T22:02:04.534Z,5.80
2023-03-17T22:04:54.456Z,2.38
2023-03-17T22:07:41.852Z,7.72
2023-03-17T22:10:29.272Z,7.15
2023-03-17T22:13:18.954Z,4.25
2023-03-17T22:16:06.676Z,4.57
2023-03-17T22:18:55.102Z,4.40
2023-03-17T22:21:43.077Z,9.00
2023-03-17T22:24:31.754Z,15.70
2023-03-17T22:27:19.160Z,5.97
2023-03-17T22:30:06.799Z,6.32
2023-03-17T22:32:54.054Z,5.32
2023-03-17T22:35:41.990Z,7.88
2023-03-17T22:38:29.311Z,8.63
2023-03-17T22:41:19.782Z,4.65
2023-03-17T22:44:10.671Z,4.90
2023-03-17T22:47:00.113Z,5.20
2023-03-17T22:49:47.441Z,5.82
2023-03-17T22:52:36.252Z,5.25
2023-03-17T22:55:23.538Z,9.40
2023-03-17T22:58:11.065Z,4.00
2023-03-17T23:00:58.816Z,6.13
2023-03-17T23:03:49.103Z,4.93
2023-03-17T23:06:38.901Z,4.65
2023-03-17T23:09:26.781Z,5.07
2023-03-17T23:12:14.074Z,5.20
2023-03-17T23:15:03.697Z,8.10
2023-03-17T23:17:51.971Z,3.45
2023-03-17T23:20:45.819Z,5.07
2023-03-17T23:23:34.270Z,3.47
2023-03-17T23:26:21.707Z,3.72
2023-03-17T23:29:09.487Z,5.45
2023-03-17T23:31:56.994Z,5.45
2023-03-17T23:34:44.166Z,9.15
2023-03-17T23:37:38.547Z,4.10
2023-03-17T23:40:28.815Z,4.78
2023-03-17T23:43:18.325Z,6.13
2023-03-17T23:46:05.895Z,3.70
2023-03-17T23:48:53.176Z,5.55
2023-03-17T23:51:41.402Z,3.63
2023-03-17T23:54:31.876Z,5.18
2023-03-17T23:57:21.662Z,5.22
